sensor_id;sensor_type;location;lat;lon;timestamp;temperature;humidity
68026;SHT31;54819;48.030;14.710;2023-05-10T00:01:35;9.78;75.02
68026;SHT31;54819;48.030;14.710;2023-05-10T00:04:02;9.73;75.28
68026;SHT31;54819;48.030;14.710;2023-05-10T00:06:28;9.72;75.67
68026;SHT31;54819;48.030;14.710;2023-05-10T00:08:56;9.69;75.73
68026;SHT31;54819;48.030;14.710;2023-05-10T00:11:22;9.66;75.80
68026;SHT31;54819;48.030;14.710;2023-05-10T00:13:49;9.62;75.52
68026;SHT31;54819;48.030;14.710;2023-05-10T00:16:16;9.61;75.60
68026;SHT31;54819;48.030;14.710;2023-05-10T00:18:43;9.58;75.56
68026;SHT31;54819;48.030;14.710;2023-05-10T00:21:09;9.52;75.81
68026;SHT31;54819;48.030;14.710;2023-05-10T00:23:36;9.47;75.03
68026;SHT31;54819;48.030;14.710;2023-05-10T00:26:03;9.44;74.85
68026;SHT31;54819;48.030;14.710;2023-05-10T00:28:30;9.41;75.16
68026;SHT31;54819;48.030;14.710;2023-05-10T00:30:56;9.40;75.46
68026;SHT31;54819;48.030;14.710;2023-05-10T00:33:23;9.38;75.72
68026;SHT31;54819;48.030;14.710;2023-05-10T00:35:50;9.37;75.53
68026;SHT31;54819;48.030;14.710;2023-05-10T00:38:17;9.36;75.34
68026;SHT31;54819;48.030;14.710;2023-05-10T00:44:17;9.27;75.21
68026;SHT31;54819;48.030;14.710;2023-05-10T00:46:44;9.23;75.28
68026;SHT31;54819;48.030;14.710;2023-05-10T00:49:12;9.18;75.05
68026;SHT31;54819;48.030;14.710;2023-05-10T00:51:39;9.15;75.19
68026;SHT31;54819;48.030;14.710;2023-05-10T00:54:06;9.09;75.28
68026;SHT31;54819;48.030;14.710;2023-05-10T00:56:33;9.08;75.39
68026;SHT31;54819;48.030;14.710;2023-05-10T00:59:00;9.03;75.48
68026;SHT31;54819;48.030;14.710;2023-05-10T01:01:27;9.00;75.70
68026;SHT31;54819;48.030;14.710;2023-05-10T01:03:55;8.96;75.69
68026;SHT31;54819;48.030;14.710;2023-05-10T01:06:23;8.94;75.86
68026;SHT31;54819;48.030;14.710;2023-05-10T01:08:50;8.91;75.78
68026;SHT31;54819;48.030;14.710;2023-05-10T01:11:17;8.90;76.05
68026;SHT31;54819;48.030;14.710;2023-05-10T01:13:44;8.87;76.34
68026;SHT31;54819;48.030;14.710;2023-05-10T01:16:22;8.84;75.94
68026;SHT31;54819;48.030;14.710;2023-05-10T01:18:50;8.81;75.83
68026;SHT31;54819;48.030;14.710;2023-05-10T01:21:23;8.77;75.64
68026;SHT31;54819;48.030;14.710;2023-05-10T01:24:27;8.73;75.87
68026;SHT31;54819;48.030;14.710;2023-05-10T01:37:21;8.58;76.42
68026;SHT31;54819;48.030;14.710;2023-05-10T01:43:25;8.55;76.27
68026;SHT31;54819;48.030;14.710;2023-05-10T01:48:40;8.50;76.09
68026;SHT31;54819;48.030;14.710;2023-05-10T01:51:19;8.50;76.40
68026;SHT31;54819;48.030;14.710;2023-05-10T01:53:56;8.47;76.44
68026;SHT31;54819;48.030;14.710;2023-05-10T01:56:29;8.43;76.49
68026;SHT31;54819;48.030;14.710;2023-05-10T01:58:59;8.39;76.42
68026;SHT31;54819;48.030;14.710;2023-05-10T02:01:30;8.36;76.54
68026;SHT31;54819;48.030;14.710;2023-05-10T02:03:59;8.32;76.83
68026;SHT31;54819;48.030;14.710;2023-05-10T02:06:29;8.30;76.87
68026;SHT31;54819;48.030;14.710;2023-05-10T02:08:59;8.28;76.84
68026;SHT31;54819;48.030;14.710;2023-05-10T02:11:29;8.25;76.94
68026;SHT31;54819;48.030;14.710;2023-05-10T02:13:58;8.23;77.09
68026;SHT31;54819;48.030;14.710;2023-05-10T02:16:28;8.22;76.99
68026;SHT31;54819;48.030;14.710;2023-05-10T02:18:58;8.18;76.91
68026;SHT31;54819;48.030;14.710;2023-05-10T02:21:28;8.14;76.81
68026;SHT31;54819;48.030;14.710;2023-05-10T02:23:57;8.08;76.84
68026;SHT31;54819;48.030;14.710;2023-05-10T02:26:27;8.04;76.93
68026;SHT31;54819;48.030;14.710;2023-05-10T02:28:56;7.99;76.98
68026;SHT31;54819;48.030;14.710;2023-05-10T02:31:24;7.96;77.01
68026;SHT31;54819;48.030;14.710;2023-05-10T02:33:52;7.93;77.47
68026;SHT31;54819;48.030;14.710;2023-05-10T02:36:21;7.91;77.47
68026;SHT31;54819;48.030;14.710;2023-05-10T02:38:49;7.89;77.56
68026;SHT31;54819;48.030;14.710;2023-05-10T02:41:20;7.90;77.95
68026;SHT31;54819;48.030;14.710;2023-05-10T02:43:50;7.91;77.89
68026;SHT31;54819;48.030;14.710;2023-05-10T02:46:23;7.96;77.94
68026;SHT31;54819;48.030;14.710;2023-05-10T02:48:49;8.04;77.86
68026;SHT31;54819;48.030;14.710;2023-05-10T02:51:16;8.11;77.62
68026;SHT31;54819;48.030;14.710;2023-05-10T02:53:49;8.20;77.49
68026;SHT31;54819;48.030;14.710;2023-05-10T02:56:20;8.28;77.33
68026;SHT31;54819;48.030;14.710;2023-05-10T02:58:55;8.40;77.30
68026;SHT31;54819;48.030;14.710;2023-05-10T03:01:21;8.50;77.22
68026;SHT31;54819;48.030;14.710;2023-05-10T03:03:49;8.59;77.21
68026;SHT31;54819;48.030;14.710;2023-05-10T03:06:15;8.70;77.23
68026;SHT31;54819;48.030;14.710;2023-05-10T03:08:43;8.78;77.23
68026;SHT31;54819;48.030;14.710;2023-05-10T03:14:21;8.97;77.21
68026;SHT31;54819;48.030;14.710;2023-05-10T03:19:56;9.12;76.64
68026;SHT31;54819;48.030;14.710;2023-05-10T03:22:39;9.18;76.69
68026;SHT31;54819;48.030;14.710;2023-05-10T03:25:12;9.22;77.01
68026;SHT31;54819;48.030;14.710;2023-05-10T03:27:43;9.27;76.97
68026;SHT31;54819;48.030;14.710;2023-05-10T03:30:12;9.34;77.12
68026;SHT31;54819;48.030;14.710;2023-05-10T03:32:40;9.42;77.36
68026;SHT31;54819;48.030;14.710;2023-05-10T03:35:08;9.47;77.18
68026;SHT31;54819;48.030;14.710;2023-05-10T03:37:36;9.54;76.83
68026;SHT31;54819;48.030;14.710;2023-05-10T03:40:03;9.61;76.50
68026;SHT31;54819;48.030;14.710;2023-05-10T03:42:32;9.66;76.45
68026;SHT31;54819;48.030;14.710;2023-05-10T03:44:58;9.70;76.67
68026;SHT31;54819;48.030;14.710;2023-05-10T03:47:25;9.71;76.59
68026;SHT31;54819;48.030;14.710;2023-05-10T03:49:52;9.77;76.37
68026;SHT31;54819;48.030;14.710;2023-05-10T03:52:19;9.81;76.20
68026;SHT31;54819;48.030;14.710;2023-05-10T03:54:46;9.86;75.90
68026;SHT31;54819;48.030;14.710;2023-05-10T03:57:13;9.91;75.85
68026;SHT31;54819;48.030;14.710;2023-05-10T03:59:39;9.96;75.86
68026;SHT31;54819;48.030;14.710;2023-05-10T04:02:06;10.00;75.64
68026;SHT31;54819;48.030;14.710;2023-05-10T04:04:33;10.05;75.22
68026;SHT31;54819;48.030;14.710;2023-05-10T04:06:59;10.08;75.01
68026;SHT31;54819;48.030;14.710;2023-05-10T04:09:26;10.10;74.92
68026;SHT31;54819;48.030;14.710;2023-05-10T04:11:53;10.14;74.48
68026;SHT31;54819;48.030;14.710;2023-05-10T04:14:19;10.15;73.89
68026;SHT31;54819;48.030;14.710;2023-05-10T04:16:46;10.14;73.77
68026;SHT31;54819;48.030;14.710;2023-05-10T04:19:12;10.16;73.66
68026;SHT31;54819;48.030;14.710;2023-05-10T04:21:39;10.19;73.51
68026;SHT31;54819;48.030;14.710;2023-05-10T04:24:06;10.22;73.20
68026;SHT31;54819;48.030;14.710;2023-05-10T04:26:33;10.25;73.14
68026;SHT31;54819;48.030;14.710;2023-05-10T04:28:59;10.27;72.54
68026;SHT31;54819;48.030;14.710;2023-05-10T04:31:26;10.28;72.54
68026;SHT31;54819;48.030;14.710;2023-05-10T04:33:54;10.28;72.64
68026;SHT31;54819;48.030;14.710;2023-05-10T04:36:21;10.30;72.62
68026;SHT31;54819;48.030;14.710;2023-05-10T04:38:47;10.36;72.67
68026;SHT31;54819;48.030;14.710;2023-05-10T04:41:14;10.37;72.53
68026;SHT31;54819;48.030;14.710;2023-05-10T04:43:41;10.37;72.46
68026;SHT31;54819;48.030;14.710;2023-05-10T04:46:07;10.39;72.49
68026;SHT31;54819;48.030;14.710;2023-05-10T04:48:34;10.41;72.16
68026;SHT31;54819;48.030;14.710;2023-05-10T04:51:01;10.42;72.17
68026;SHT31;54819;48.030;14.710;2023-05-10T04:53:27;10.44;72.22
68026;SHT31;54819;48.030;14.710;2023-05-10T04:55:54;10.46;72.17
68026;SHT31;54819;48.030;14.710;2023-05-10T04:58:21;10.49;72.28
68026;SHT31;54819;48.030;14.710;2023-05-10T05:00:47;10.52;72.21
68026;SHT31;54819;48.030;14.710;2023-05-10T05:03:14;10.56;72.18
68026;SHT31;54819;48.030;14.710;2023-05-10T05:05:41;10.59;72.11
68026;SHT31;54819;48.030;14.710;2023-05-10T05:08:08;10.62;71.93
68026;SHT31;54819;48.030;14.710;2023-05-10T05:10:35;10.68;71.74
68026;SHT31;54819;48.030;14.710;2023-05-10T05:13:01;10.73;71.56
68026;SHT31;54819;48.030;14.710;2023-05-10T05:15:28;10.76;71.58
68026;SHT31;54819;48.030;14.710;2023-05-10T05:17:56;10.78;71.30
68026;SHT31;54819;48.030;14.710;2023-05-10T05:20:23;10.81;71.33
68026;SHT31;54819;48.030;14.710;2023-05-10T05:22:49;10.85;71.15
68026;SHT31;54819;48.030;14.710;2023-05-10T05:25:16;10.89;71.02
68026;SHT31;54819;48.030;14.710;2023-05-10T05:27:42;10.95;70.92
68026;SHT31;54819;48.030;14.710;2023-05-10T05:30:09;11.02;71.07
68026;SHT31;54819;48.030;14.710;2023-05-10T05:32:36;11.10;70.80
68026;SHT31;54819;48.030;14.710;2023-05-10T05:35:03;11.14;70.62
68026;SHT31;54819;48.030;14.710;2023-05-10T05:37:31;11.18;70.35
68026;SHT31;54819;48.030;14.710;2023-05-10T05:39:57;11.22;70.40
68026;SHT31;54819;48.030;14.710;2023-05-10T05:42:24;11.28;70.05
68026;SHT31;54819;48.030;14.710;2023-05-10T05:44:51;11.30;70.28
68026;SHT31;54819;48.030;14.710;2023-05-10T05:47:18;11.31;70.34
68026;SHT31;54819;48.030;14.710;2023-05-10T05:49:45;11.31;70.27
68026;SHT31;54819;48.030;14.710;2023-05-10T05:52:12;11.32;70.23
68026;SHT31;54819;48.030;14.710;2023-05-10T05:54:38;11.32;69.88
68026;SHT31;54819;48.030;14.710;2023-05-10T05:57:05;11.30;70.08
68026;SHT31;54819;48.030;14.710;2023-05-10T05:59:32;11.31;70.50
68026;SHT31;54819;48.030;14.710;2023-05-10T06:01:59;11.36;70.75
68026;SHT31;54819;48.030;14.710;2023-05-10T06:04:27;11.44;70.73
68026;SHT31;54819;48.030;14.710;2023-05-10T06:06:54;11.49;70.32
68026;SHT31;54819;48.030;14.710;2023-05-10T06:09:20;11.51;70.16
68026;SHT31;54819;48.030;14.710;2023-05-10T06:11:47;11.60;70.04
68026;SHT31;54819;48.030;14.710;2023-05-10T06:14:14;11.69;69.82
68026;SHT31;54819;48.030;14.710;2023-05-10T06:16:41;11.76;69.87
68026;SHT31;54819;48.030;14.710;2023-05-10T06:19:07;11.84;70.10
68026;SHT31;54819;48.030;14.710;2023-05-10T06:21:34;11.91;69.89
68026;SHT31;54819;48.030;14.710;2023-05-10T06:24:00;11.98;69.72
68026;SHT31;54819;48.030;14.710;2023-05-10T06:26:27;12.03;69.57
68026;SHT31;54819;48.030;14.710;2023-05-10T06:28:54;12.03;69.16
68026;SHT31;54819;48.030;14.710;2023-05-10T06:31:21;12.03;69.34
68026;SHT31;54819;48.030;14.710;2023-05-10T06:33:47;12.05;68.99
68026;SHT31;54819;48.030;14.710;2023-05-10T06:36:14;12.16;69.12
68026;SHT31;54819;48.030;14.710;2023-05-10T06:38:41;12.31;69.19
68026;SHT31;54819;48.030;14.710;2023-05-10T06:41:07;12.48;69.35
68026;SHT31;54819;48.030;14.710;2023-05-10T06:43:34;12.67;69.67
68026;SHT31;54819;48.030;14.710;2023-05-10T06:46:01;12.84;70.08
68026;SHT31;54819;48.030;14.710;2023-05-10T06:48:28;13.01;69.73
68026;SHT31;54819;48.030;14.710;2023-05-10T06:50:54;13.11;69.21
68026;SHT31;54819;48.030;14.710;2023-05-10T06:53:21;13.18;69.07
68026;SHT31;54819;48.030;14.710;2023-05-10T06:55:48;13.31;69.15
68026;SHT31;54819;48.030;14.710;2023-05-10T06:58:16;13.40;68.81
68026;SHT31;54819;48.030;14.710;2023-05-10T07:00:42;13.39;68.91
68026;SHT31;54819;48.030;14.710;2023-05-10T07:03:10;13.40;68.85
68026;SHT31;54819;48.030;14.710;2023-05-10T07:05:37;13.40;68.95
68026;SHT31;54819;48.030;14.710;2023-05-10T07:08:04;13.41;69.04
68026;SHT31;54819;48.030;14.710;2023-05-10T07:10:31;13.44;69.35
68026;SHT31;54819;48.030;14.710;2023-05-10T07:12:58;13.40;69.51
68026;SHT31;54819;48.030;14.710;2023-05-10T07:15:26;13.37;69.85
68026;SHT31;54819;48.030;14.710;2023-05-10T07:17:54;13.39;70.72
68026;SHT31;54819;48.030;14.710;2023-05-10T07:20:21;13.28;71.44
68026;SHT31;54819;48.030;14.710;2023-05-10T07:22:47;13.21;71.40
68026;SHT31;54819;48.030;14.710;2023-05-10T07:25:14;13.14;72.09
68026;SHT31;54819;48.030;14.710;2023-05-10T07:27:41;13.11;72.67
68026;SHT31;54819;48.030;14.710;2023-05-10T07:30:08;13.13;72.79
68026;SHT31;54819;48.030;14.710;2023-05-10T07:32:35;13.21;72.66
68026;SHT31;54819;48.030;14.710;2023-05-10T07:35:02;13.21;71.94
68026;SHT31;54819;48.030;14.710;2023-05-10T07:37:29;13.08;71.60
68026;SHT31;54819;48.030;14.710;2023-05-10T07:39:56;12.98;72.11
68026;SHT31;54819;48.030;14.710;2023-05-10T07:42:23;12.95;72.71
68026;SHT31;54819;48.030;14.710;2023-05-10T07:44:49;12.99;72.90
68026;SHT31;54819;48.030;14.710;2023-05-10T07:47:16;13.07;73.04
68026;SHT31;54819;48.030;14.710;2023-05-10T07:49:42;13.16;72.88
68026;SHT31;54819;48.030;14.710;2023-05-10T07:52:09;13.21;72.03
68026;SHT31;54819;48.030;14.710;2023-05-10T07:54:36;13.24;72.16
68026;SHT31;54819;48.030;14.710;2023-05-10T07:57:03;13.23;71.97
68026;SHT31;54819;48.030;14.710;2023-05-10T07:59:30;13.19;72.34
68026;SHT31;54819;48.030;14.710;2023-05-10T08:01:57;13.23;72.69
68026;SHT31;54819;48.030;14.710;2023-05-10T08:04:23;13.26;72.80
68026;SHT31;54819;48.030;14.710;2023-05-10T08:06:50;13.28;73.15
68026;SHT31;54819;48.030;14.710;2023-05-10T08:09:17;13.32;73.93
68026;SHT31;54819;48.030;14.710;2023-05-10T08:11:44;13.42;74.42
68026;SHT31;54819;48.030;14.710;2023-05-10T08:14:10;13.54;74.03
68026;SHT31;54819;48.030;14.710;2023-05-10T08:16:37;13.57;74.07
68026;SHT31;54819;48.030;14.710;2023-05-10T08:19:03;13.55;74.02
68026;SHT31;54819;48.030;14.710;2023-05-10T08:21:31;13.57;74.20
68026;SHT31;54819;48.030;14.710;2023-05-10T08:23:58;13.58;74.36
68026;SHT31;54819;48.030;14.710;2023-05-10T08:26:24;13.54;74.66
68026;SHT31;54819;48.030;14.710;2023-05-10T08:28:52;13.50;75.11
68026;SHT31;54819;48.030;14.710;2023-05-10T08:31:18;13.48;76.01
68026;SHT31;54819;48.030;14.710;2023-05-10T08:33:45;13.53;76.06
68026;SHT31;54819;48.030;14.710;2023-05-10T08:36:12;13.57;76.48
68026;SHT31;54819;48.030;14.710;2023-05-10T08:38:40;13.62;76.90
68026;SHT31;54819;48.030;14.710;2023-05-10T08:41:07;13.68;77.16
68026;SHT31;54819;48.030;14.710;2023-05-10T08:43:35;13.72;76.77
68026;SHT31;54819;48.030;14.710;2023-05-10T08:46:02;13.75;77.21
68026;SHT31;54819;48.030;14.710;2023-05-10T08:48:33;13.81;77.08
68026;SHT31;54819;48.030;14.710;2023-05-10T08:51:00;13.79;77.48
68026;SHT31;54819;48.030;14.710;2023-05-10T08:53:30;13.87;77.59
68026;SHT31;54819;48.030;14.710;2023-05-10T08:56:02;13.92;77.88
68026;SHT31;54819;48.030;14.710;2023-05-10T08:58:30;13.99;77.72
68026;SHT31;54819;48.030;14.710;2023-05-10T09:00:57;13.96;78.03
68026;SHT31;54819;48.030;14.710;2023-05-10T09:03:25;13.94;78.02
68026;SHT31;54819;48.030;14.710;2023-05-10T09:05:52;13.89;77.87
68026;SHT31;54819;48.030;14.710;2023-05-10T09:08:19;13.96;77.96
68026;SHT31;54819;48.030;14.710;2023-05-10T09:10:47;14.03;77.22
68026;SHT31;54819;48.030;14.710;2023-05-10T09:13:15;14.03;77.44
68026;SHT31;54819;48.030;14.710;2023-05-10T09:15:43;13.99;77.69
68026;SHT31;54819;48.030;14.710;2023-05-10T09:18:11;13.98;77.72
68026;SHT31;54819;48.030;14.710;2023-05-10T09:20:39;13.98;77.99
68026;SHT31;54819;48.030;14.710;2023-05-10T09:23:06;14.01;77.51
68026;SHT31;54819;48.030;14.710;2023-05-10T09:25:34;14.07;77.34
68026;SHT31;54819;48.030;14.710;2023-05-10T09:28:01;14.15;77.33
68026;SHT31;54819;48.030;14.710;2023-05-10T09:30:29;14.19;77.43
68026;SHT31;54819;48.030;14.710;2023-05-10T09:32:58;14.25;77.21
68026;SHT31;54819;48.030;14.710;2023-05-10T09:35:27;14.31;77.24
68026;SHT31;54819;48.030;14.710;2023-05-10T09:38:00;14.35;77.28
68026;SHT31;54819;48.030;14.710;2023-05-10T09:40:30;14.31;77.50
68026;SHT31;54819;48.030;14.710;2023-05-10T09:43:04;14.40;77.31
68026;SHT31;54819;48.030;14.710;2023-05-10T09:45:34;14.50;77.00
68026;SHT31;54819;48.030;14.710;2023-05-10T09:48:04;14.59;76.76
68026;SHT31;54819;48.030;14.710;2023-05-10T09:50:32;14.72;76.69
68026;SHT31;54819;48.030;14.710;2023-05-10T09:53:01;14.97;76.65
68026;SHT31;54819;48.030;14.710;2023-05-10T09:55:43;15.21;76.26
68026;SHT31;54819;48.030;14.710;2023-05-10T09:58:13;15.38;75.92
68026;SHT31;54819;48.030;14.710;2023-05-10T10:00:41;15.65;75.98
68026;SHT31;54819;48.030;14.710;2023-05-10T10:03:16;15.89;75.03
68026;SHT31;54819;48.030;14.710;2023-05-10T10:05:47;16.09;74.51
68026;SHT31;54819;48.030;14.710;2023-05-10T10:08:15;16.31;74.31
68026;SHT31;54819;48.030;14.710;2023-05-10T10:10:44;16.54;73.48
68026;SHT31;54819;48.030;14.710;2023-05-10T10:13:12;16.71;72.97
68026;SHT31;54819;48.030;14.710;2023-05-10T10:15:41;16.77;73.15
68026;SHT31;54819;48.030;14.710;2023-05-10T10:18:10;16.84;72.92
68026;SHT31;54819;48.030;14.710;2023-05-10T10:20:41;16.88;73.32
68026;SHT31;54819;48.030;14.710;2023-05-10T10:23:08;16.92;73.36
68026;SHT31;54819;48.030;14.710;2023-05-10T10:25:36;17.00;72.90
68026;SHT31;54819;48.030;14.710;2023-05-10T10:28:15;17.01;72.74
68026;SHT31;54819;48.030;14.710;2023-05-10T10:30:53;17.12;72.63
68026;SHT31;54819;48.030;14.710;2023-05-10T10:36:44;17.19;72.58
68026;SHT31;54819;48.030;14.710;2023-05-10T10:39:13;17.15;72.31
68026;SHT31;54819;48.030;14.710;2023-05-10T10:41:54;17.18;72.88
68026;SHT31;54819;48.030;14.710;2023-05-10T10:55:08;17.20;72.10
68026;SHT31;54819;48.030;14.710;2023-05-10T11:02:58;17.64;71.54
68026;SHT31;54819;48.030;14.710;2023-05-10T11:05:42;17.56;71.64
68026;SHT31;54819;48.030;14.710;2023-05-10T11:16:24;18.00;71.13
68026;SHT31;54819;48.030;14.710;2023-05-10T11:19:03;17.86;70.92
68026;SHT31;54819;48.030;14.710;2023-05-10T11:21:36;17.64;71.65
68026;SHT31;54819;48.030;14.710;2023-05-10T11:24:16;17.64;72.33
68026;SHT31;54819;48.030;14.710;2023-05-10T11:26:52;17.79;72.45
68026;SHT31;54819;48.030;14.710;2023-05-10T11:29:19;17.83;72.16
68026;SHT31;54819;48.030;14.710;2023-05-10T11:31:47;17.89;72.41
68026;SHT31;54819;48.030;14.710;2023-05-10T11:34:28;18.15;71.85
68026;SHT31;54819;48.030;14.710;2023-05-10T11:36:59;18.33;71.53
68026;SHT31;54819;48.030;14.710;2023-05-10T11:39:27;18.26;69.91
68026;SHT31;54819;48.030;14.710;2023-05-10T11:41:56;18.12;70.27
68026;SHT31;54819;48.030;14.710;2023-05-10T11:44:32;18.17;70.70
68026;SHT31;54819;48.030;14.710;2023-05-10T11:47:00;18.19;70.06
68026;SHT31;54819;48.030;14.710;2023-05-10T11:49:27;17.99;70.52
68026;SHT31;54819;48.030;14.710;2023-05-10T11:52:12;18.00;70.82
68026;SHT31;54819;48.030;14.710;2023-05-10T11:54:51;18.09;70.06
68026;SHT31;54819;48.030;14.710;2023-05-10T11:57:20;18.03;70.08
68026;SHT31;54819;48.030;14.710;2023-05-10T11:59:53;17.86;70.02
68026;SHT31;54819;48.030;14.710;2023-05-10T12:02:21;17.84;70.01
68026;SHT31;54819;48.030;14.710;2023-05-10T12:04:49;17.71;70.38
68026;SHT31;54819;48.030;14.710;2023-05-10T12:07:17;17.58;70.47
68026;SHT31;54819;48.030;14.710;2023-05-10T12:09:44;17.52;70.66
68026;SHT31;54819;48.030;14.710;2023-05-10T12:12:16;17.44;71.14
68026;SHT31;54819;48.030;14.710;2023-05-10T12:14:43;17.47;71.36
68026;SHT31;54819;48.030;14.710;2023-05-10T12:17:12;17.45;71.70
68026;SHT31;54819;48.030;14.710;2023-05-10T12:19:39;17.52;72.07
68026;SHT31;54819;48.030;14.710;2023-05-10T12:22:07;17.68;70.92
68026;SHT31;54819;48.030;14.710;2023-05-10T12:24:34;17.63;70.49
68026;SHT31;54819;48.030;14.710;2023-05-10T12:27:04;17.48;71.06
68026;SHT31;54819;48.030;14.710;2023-05-10T12:29:34;17.53;70.60
68026;SHT31;54819;48.030;14.710;2023-05-10T12:32:01;17.36;70.84
68026;SHT31;54819;48.030;14.710;2023-05-10T12:34:35;17.29;71.09
68026;SHT31;54819;48.030;14.710;2023-05-10T12:37:05;17.28;71.18
68026;SHT31;54819;48.030;14.710;2023-05-10T12:39:41;17.30;71.24
68026;SHT31;54819;48.030;14.710;2023-05-10T12:42:11;17.36;71.58
68026;SHT31;54819;48.030;14.710;2023-05-10T12:44:38;17.40;71.33
68026;SHT31;54819;48.030;14.710;2023-05-10T12:47:06;17.45;70.95
68026;SHT31;54819;48.030;14.710;2023-05-10T12:49:33;17.57;70.27
68026;SHT31;54819;48.030;14.710;2023-05-10T12:52:00;17.60;70.12
68026;SHT31;54819;48.030;14.710;2023-05-10T12:54:27;17.59;70.31
68026;SHT31;54819;48.030;14.710;2023-05-10T12:56:54;17.63;70.03
68026;SHT31;54819;48.030;14.710;2023-05-10T12:59:21;17.68;70.14
68026;SHT31;54819;48.030;14.710;2023-05-10T13:01:49;17.67;70.39
68026;SHT31;54819;48.030;14.710;2023-05-10T13:04:15;17.72;70.21
68026;SHT31;54819;48.030;14.710;2023-05-10T13:06:42;17.82;70.34
68026;SHT31;54819;48.030;14.710;2023-05-10T13:09:09;17.86;70.43
68026;SHT31;54819;48.030;14.710;2023-05-10T13:11:36;17.88;70.45
68026;SHT31;54819;48.030;14.710;2023-05-10T13:14:03;18.03;70.44
68026;SHT31;54819;48.030;14.710;2023-05-10T13:16:29;18.09;69.77
68026;SHT31;54819;48.030;14.710;2023-05-10T13:18:57;18.08;69.21
68026;SHT31;54819;48.030;14.710;2023-05-10T13:21:24;17.99;68.97
68026;SHT31;54819;48.030;14.710;2023-05-10T13:23:51;18.07;68.69
68026;SHT31;54819;48.030;14.710;2023-05-10T13:26:19;18.06;68.59
68026;SHT31;54819;48.030;14.710;2023-05-10T13:28:46;17.92;68.90
68026;SHT31;54819;48.030;14.710;2023-05-10T13:31:13;17.99;68.45
68026;SHT31;54819;48.030;14.710;2023-05-10T13:33:39;18.05;68.18
68026;SHT31;54819;48.030;14.710;2023-05-10T13:36:06;18.04;68.27
68026;SHT31;54819;48.030;14.710;2023-05-10T13:38:33;18.02;68.65
68026;SHT31;54819;48.030;14.710;2023-05-10T13:40:59;17.92;68.96
68026;SHT31;54819;48.030;14.710;2023-05-10T13:43:26;17.77;69.22
68026;SHT31;54819;48.030;14.710;2023-05-10T13:45:53;17.69;69.31
68026;SHT31;54819;48.030;14.710;2023-05-10T13:48:20;17.70;69.79
68026;SHT31;54819;48.030;14.710;2023-05-10T13:50:47;17.59;69.32
68026;SHT31;54819;48.030;14.710;2023-05-10T13:53:13;17.34;69.99
68026;SHT31;54819;48.030;14.710;2023-05-10T13:55:40;17.25;70.58
68026;SHT31;54819;48.030;14.710;2023-05-10T13:58:07;17.26;70.51
68026;SHT31;54819;48.030;14.710;2023-05-10T14:00:34;17.19;70.85
68026;SHT31;54819;48.030;14.710;2023-05-10T14:03:00;17.19;70.93
68026;SHT31;54819;48.030;14.710;2023-05-10T14:05:27;17.11;71.10
68026;SHT31;54819;48.030;14.710;2023-05-10T14:07:54;17.07;70.66
68026;SHT31;54819;48.030;14.710;2023-05-10T14:10:21;16.94;70.70
68026;SHT31;54819;48.030;14.710;2023-05-10T14:12:48;16.90;71.26
68026;SHT31;54819;48.030;14.710;2023-05-10T14:15:15;16.99;70.78
68026;SHT31;54819;48.030;14.710;2023-05-10T14:17:42;17.05;70.66
68026;SHT31;54819;48.030;14.710;2023-05-10T14:20:10;17.16;70.48
68026;SHT31;54819;48.030;14.710;2023-05-10T14:22:37;17.16;69.72
68026;SHT31;54819;48.030;14.710;2023-05-10T14:25:04;17.09;70.39
68026;SHT31;54819;48.030;14.710;2023-05-10T14:27:31;17.09;70.42
68026;SHT31;54819;48.030;14.710;2023-05-10T14:29:58;17.02;70.37
68026;SHT31;54819;48.030;14.710;2023-05-10T14:32:25;17.12;70.42
68026;SHT31;54819;48.030;14.710;2023-05-10T14:34:53;17.18;70.06
68026;SHT31;54819;48.030;14.710;2023-05-10T14:37:20;17.19;69.71
68026;SHT31;54819;48.030;14.710;2023-05-10T14:39:47;17.21;69.56
68026;SHT31;54819;48.030;14.710;2023-05-10T14:42:13;17.22;69.96
68026;SHT31;54819;48.030;14.710;2023-05-10T14:44:40;17.26;70.01
68026;SHT31;54819;48.030;14.710;2023-05-10T14:47:06;17.29;69.83
68026;SHT31;54819;48.030;14.710;2023-05-10T14:49:35;17.27;69.71
68026;SHT31;54819;48.030;14.710;2023-05-10T14:52:01;17.24;69.59
68026;SHT31;54819;48.030;14.710;2023-05-10T14:54:29;17.18;69.74
68026;SHT31;54819;48.030;14.710;2023-05-10T14:56:56;17.19;69.63
68026;SHT31;54819;48.030;14.710;2023-05-10T14:59:22;17.21;69.52
68026;SHT31;54819;48.030;14.710;2023-05-10T15:01:49;17.15;69.65
68026;SHT31;54819;48.030;14.710;2023-05-10T15:04:17;17.11;69.90
68026;SHT31;54819;48.030;14.710;2023-05-10T15:06:44;17.13;69.74
68026;SHT31;54819;48.030;14.710;2023-05-10T15:09:11;17.11;69.59
68026;SHT31;54819;48.030;14.710;2023-05-10T15:11:37;17.11;69.56
68026;SHT31;54819;48.030;14.710;2023-05-10T15:14:04;17.10;69.37
68026;SHT31;54819;48.030;14.710;2023-05-10T15:16:31;17.05;69.50
68026;SHT31;54819;48.030;14.710;2023-05-10T15:19:01;17.03;69.80
68026;SHT31;54819;48.030;14.710;2023-05-10T15:21:28;16.97;70.32
68026;SHT31;54819;48.030;14.710;2023-05-10T15:23:54;16.91;70.42
68026;SHT31;54819;48.030;14.710;2023-05-10T15:26:21;16.84;70.50
68026;SHT31;54819;48.030;14.710;2023-05-10T15:28:48;16.76;71.32
68026;SHT31;54819;48.030;14.710;2023-05-10T15:31:14;16.67;72.18
68026;SHT31;54819;48.030;14.710;2023-05-10T15:33:41;16.59;72.96
68026;SHT31;54819;48.030;14.710;2023-05-10T15:36:08;16.57;72.95
68026;SHT31;54819;48.030;14.710;2023-05-10T15:38:34;16.55;73.24
68026;SHT31;54819;48.030;14.710;2023-05-10T15:41:03;16.55;73.11
68026;SHT31;54819;48.030;14.710;2023-05-10T15:43:29;16.55;73.19
68026;SHT31;54819;48.030;14.710;2023-05-10T15:45:56;16.56;72.99
68026;SHT31;54819;48.030;14.710;2023-05-10T15:48:22;16.54;72.70
68026;SHT31;54819;48.030;14.710;2023-05-10T15:50:49;16.48;72.84
68026;SHT31;54819;48.030;14.710;2023-05-10T15:53:16;16.40;73.02
68026;SHT31;54819;48.030;14.710;2023-05-10T15:55:42;16.35;73.08
68026;SHT31;54819;48.030;14.710;2023-05-10T15:58:09;16.32;72.74
68026;SHT31;54819;48.030;14.710;2023-05-10T16:00:36;16.26;72.91
68026;SHT31;54819;48.030;14.710;2023-05-10T16:03:04;16.22;73.22
68026;SHT31;54819;48.030;14.710;2023-05-10T16:05:32;16.18;73.27
68026;SHT31;54819;48.030;14.710;2023-05-10T16:07:59;16.17;73.21
68026;SHT31;54819;48.030;14.710;2023-05-10T16:10:26;16.17;72.88
68026;SHT31;54819;48.030;14.710;2023-05-10T16:12:56;16.15;73.00
68026;SHT31;54819;48.030;14.710;2023-05-10T16:15:24;16.10;73.19
68026;SHT31;54819;48.030;14.710;2023-05-10T16:17:50;16.09;73.23
68026;SHT31;54819;48.030;14.710;2023-05-10T16:20:17;16.07;73.56